Capt Leroy Devall Inc — WYU9878 — position and weather

sailwx.info

Track history (hours):
 
Tides and Currents Weather Stations Pressure Air Temp Water Temp Dewpoint Dewpoint Depression Visibility Wind Speed Wind Dir Waves Ship Positions

Capt Leroy Devall Inc

Owner: CAPT LEROY DEVALL INC, Sulphur, LA. More information available from US FCC via Universal Licensing System and Coast Guard Vessel Documentation Center.

Last reported at 2017-Dec-11 17:00 UTC. Time now 2017-Dec-14 00:27 UTC.
Position N 29°36' W 095°01'.

Length 20 m; draft 2.5 m.

Type: Towing. MMSI: 366973450.

Date/timePositionNaut miles runAvg speedWind from/ knotsBaromVisibWave heightAir tempDewpointWater temp
2017-Dec-11 17:00N 29°36' W 095°01'0 0.0
2017-Dec-11 16:30N 29°36' W 095°01'0 0.0
2017-Dec-11 15:57N 29°36' W 095°01'0 0.0
2017-Dec-11 15:30N 29°36' W 095°01'0 0.0
2017-Dec-11 15:00N 29°36' W 095°01'0 0.0
2017-Dec-11 14:30N 29°36' W 095°01'0 0.0
2017-Dec-11 14:00N 29°36' W 095°01'0 0.0
2017-Dec-11 13:30N 29°36' W 095°01'0 0.0
2017-Dec-11 13:00N 29°36' W 095°01'0 0.0
2017-Dec-11 12:30N 29°36' W 095°01'0 0.0
2017-Dec-11 12:00N 29°36' W 095°01'0 0.0
2017-Dec-11 11:30N 29°36' W 095°01'0 0.0
2017-Dec-11 11:00N 29°36' W 095°01'0 0.0
2017-Dec-11 10:30N 29°36' W 095°01'0 0.0
2017-Dec-11 10:00N 29°36' W 095°01'0 0.0
2017-Dec-11 09:30N 29°36' W 095°01'0 0.0
2017-Dec-11 09:00N 29°36' W 095°01'0 0.0
2017-Dec-11 08:30N 29°36' W 095°01'0 0.0
2017-Dec-11 08:00N 29°36' W 095°01'0 0.6
2017-Dec-11 07:31N 29°37' W 095°01'0 0.2
2017-Dec-11 07:00N 29°37' W 095°01'0 0.4
2017-Dec-11 06:31N 29°37' W 095°01'0 0.3
2017-Dec-11 06:01N 29°37' W 095°01'0 0.0
2017-Dec-11 05:30N 29°37' W 095°01'2 3.3
2017-Dec-11 05:00N 29°37' W 094°59'3 6.0
2017-Dec-11 04:30N 29°35' W 094°56'3 6.8
2017-Dec-11 04:01N 29°33' W 094°54'  
2017-Dec-04 10:30N 29°36' W 095°01'0 0.0
2017-Dec-04 10:00N 29°36' W 095°01'0 0.0
2017-Dec-04 09:30N 29°36' W 095°01'0 0.0
2017-Dec-04 09:00N 29°36' W 095°01'0 0.0
2017-Dec-04 08:30N 29°36' W 095°01'0 0.0
2017-Dec-04 08:00N 29°36' W 095°01'0 0.0
2017-Dec-04 07:30N 29°36' W 095°01'0 0.0
2017-Dec-04 07:00N 29°36' W 095°01'0 0.0
2017-Dec-04 06:30N 29°36' W 095°01'0 0.0
2017-Dec-04 06:00N 29°36' W 095°01'0 0.0
2017-Dec-04 05:30N 29°36' W 095°01'0 0.0
2017-Dec-04 05:00N 29°36' W 095°01'0 0.0
2017-Dec-04 04:30N 29°36' W 095°01'0 0.0
2017-Dec-04 04:00N 29°36' W 095°01'0 0.0
2017-Dec-04 03:30N 29°36' W 095°01'0 0.0
2017-Dec-04 03:00N 29°36' W 095°01'0 0.0
2017-Dec-04 02:30N 29°36' W 095°01'0 0.0
2017-Dec-04 02:00N 29°36' W 095°01'0 0.0
2017-Dec-04 01:30N 29°36' W 095°01'0 0.0
2017-Dec-04 01:00N 29°36' W 095°01'0 0.0
2017-Dec-04 00:30N 29°36' W 095°01'0 0.0
2017-Dec-04 00:00N 29°36' W 095°01'0 0.0
2017-Dec-03 23:30N 29°36' W 095°01'0 0.5
2017-Dec-03 23:00N 29°37' W 095°01'3 6.6
2017-Dec-03 22:29N 29°36' W 094°57'4 7.2
2017-Dec-03 22:00N 29°34' W 094°55'34 3.6
2017-Dec-03 12:28N 29°39' W 094°16'  
Track history (hours):
 
Tides and Currents Weather Stations Pressure Air Temp Water Temp Dewpoint Dewpoint Depression Visibility Wind Speed Wind Dir Waves Ship Positions

Capt Leroy Devall Inc

Owner: CAPT LEROY DEVALL INC, Sulphur, LA. More information available from US FCC via Universal Licensing System and Coast Guard Vessel Documentation Center.

Last reported at 2017-Dec-11 17:00 UTC. Time now 2017-Dec-14 00:27 UTC.
Position N 29°36' W 095°01'.

Length 20 m; draft 2.5 m.

Type: Towing. MMSI: 366973450.

Date/timePositionNaut miles runAvg speedWind from/ knotsBaromVisibWave heightAir tempDewpointWater temp
2017-Dec-11 17:00N 29°36' W 095°01'0 0.0
2017-Dec-11 16:30N 29°36' W 095°01'0 0.0
2017-Dec-11 15:57N 29°36' W 095°01'0 0.0
2017-Dec-11 15:30N 29°36' W 095°01'0 0.0
2017-Dec-11 15:00N 29°36' W 095°01'0 0.0
2017-Dec-11 14:30N 29°36' W 095°01'0 0.0
2017-Dec-11 14:00N 29°36' W 095°01'0 0.0
2017-Dec-11 13:30N 29°36' W 095°01'0 0.0
2017-Dec-11 13:00N 29°36' W 095°01'0 0.0
2017-Dec-11 12:30N 29°36' W 095°01'0 0.0
2017-Dec-11 12:00N 29°36' W 095°01'0 0.0
2017-Dec-11 11:30N 29°36' W 095°01'0 0.0
2017-Dec-11 11:00N 29°36' W 095°01'0 0.0
2017-Dec-11 10:30N 29°36' W 095°01'0 0.0
2017-Dec-11 10:00N 29°36' W 095°01'0 0.0
2017-Dec-11 09:30N 29°36' W 095°01'0 0.0
2017-Dec-11 09:00N 29°36' W 095°01'0 0.0
2017-Dec-11 08:30N 29°36' W 095°01'0 0.0
2017-Dec-11 08:00N 29°36' W 095°01'0 0.6
2017-Dec-11 07:31N 29°37' W 095°01'0 0.2
2017-Dec-11 07:00N 29°37' W 095°01'0 0.4
2017-Dec-11 06:31N 29°37' W 095°01'0 0.3
2017-Dec-11 06:01N 29°37' W 095°01'0 0.0
2017-Dec-11 05:30N 29°37' W 095°01'2 3.3
2017-Dec-11 05:00N 29°37' W 094°59'3 6.0
2017-Dec-11 04:30N 29°35' W 094°56'3 6.8
2017-Dec-11 04:01N 29°33' W 094°54'  
2017-Dec-04 10:30N 29°36' W 095°01'0 0.0
2017-Dec-04 10:00N 29°36' W 095°01'0 0.0
2017-Dec-04 09:30N 29°36' W 095°01'0 0.0
2017-Dec-04 09:00N 29°36' W 095°01'0 0.0
2017-Dec-04 08:30N 29°36' W 095°01'0 0.0
2017-Dec-04 08:00N 29°36' W 095°01'0 0.0
2017-Dec-04 07:30N 29°36' W 095°01'0 0.0
2017-Dec-04 07:00N 29°36' W 095°01'0 0.0
2017-Dec-04 06:30N 29°36' W 095°01'0 0.0
2017-Dec-04 06:00N 29°36' W 095°01'0 0.0
2017-Dec-04 05:30N 29°36' W 095°01'0 0.0
2017-Dec-04 05:00N 29°36' W 095°01'0 0.0
2017-Dec-04 04:30N 29°36' W 095°01'0 0.0
2017-Dec-04 04:00N 29°36' W 095°01'0 0.0
2017-Dec-04 03:30N 29°36' W 095°01'0 0.0
2017-Dec-04 03:00N 29°36' W 095°01'0 0.0
2017-Dec-04 02:30N 29°36' W 095°01'0 0.0
2017-Dec-04 02:00N 29°36' W 095°01'0 0.0
2017-Dec-04 01:30N 29°36' W 095°01'0 0.0
2017-Dec-04 01:00N 29°36' W 095°01'0 0.0
2017-Dec-04 00:30N 29°36' W 095°01'0 0.0
2017-Dec-04 00:00N 29°36' W 095°01'0 0.0
2017-Dec-03 23:30N 29°36' W 095°01'0 0.5
2017-Dec-03 23:00N 29°37' W 095°01'3 6.6
2017-Dec-03 22:29N 29°36' W 094°57'4 7.2
2017-Dec-03 22:00N 29°34' W 094°55'34 3.6
2017-Dec-03 12:28N 29°39' W 094°16'  

Dump ship's entire track history